LPAZ/SMA METAR and TAF weather

Enter ICAO airport designator
Station Type Date Time Source
LPAZ METAR 2021/09/24 05:30 UTC NOAA

LPAZ 240530Z 02007KT 9999 VCSH FEW022 BKN046 19/16 Q1022


Station Type Date Time Source
LPAZ Decoded METAR 2021/09/24 05:30 UTC NOAA

Santa Maria Acores , Portugal (LPAZ) 36-58N 025-10W 100M
Sep 24, 2021 - 01:30 AM EDT / 2021.09.24 0530 UTC
Wind: from the NNE (020 degrees) at 8 MPH (7 KT):0
Visibility: greater than 7 mile(s):0
Sky conditions: mostly cloudy
Weather: showers in the vicinity
Temperature: 66 F (19 C)
Dew Point: 60 F (16 C)
Relative Humidity: 82%
Pressure (altimeter): 30.18 in. Hg (1022 hPa)
ob: LPAZ 240530Z 02007KT 9999 VCSH FEW022 BKN046 19/16 Q1022
cycle: 5

Station Type Date Time Source
LPAZ TAF 2021/09/24 06:19 UTC NOAA

TAF LPAZ 240500Z 2406/2512 VRB05KT 9999 SCT025
BECMG 2406/2408 06010KT
TEMPO 2406/2512 FEW020 BKN045
BECMG 2410/2412 09010KT
BECMG 2415/2417 14008KT
BECMG 2420/2423 21010KT

Example: see airport list